KB0Y Weather Reports


time (UTC)temp
C
wind
direction
speed
KPH
gust
KPH
rain 1hr
cm
rain 24hr
cm
rain mn
cm
humidity
%
barometer
mb
20260906131607 27 329 1.6 4.8 0.00 0.00 0.00 95 1017.2
20260906131102 26 328 0.0 4.8 0.00 0.00 0.00 95 1017.2
20260906130556 26 208 6.4 8.0 0.00 0.00 0.00 95 1017.2
20260906130052 26 188 1.6 4.8 0.00 0.00 0.00 94 1017.2
20260906125548 26 342 0.0 0.0 0.00 0.00 0.00 94 1017.2
20260906125043 25 178 0.0 0.0 0.00 0.00 0.00 94 1017.2
20260906124538 25 291 0.0 4.8 0.00 0.00 0.00 94 1017.2
20260906124033 25 177 0.0 0.0 0.00 0.00 0.00 95 1017.2
20260906123532 25 188 4.8 8.0 0.00 0.00 0.00 95 1017.6
20260906123027 25 177 1.6 4.8 0.00 0.00 0.00 96 1017.6
20260906122521 25 346 0.0 4.8 0.00 0.00 0.00 96 1017.2
20260906122018 24 346 0.0 0.0 0.00 0.00 0.00 96 1017.2
20260906121513 24 345 0.0 0.0 0.00 0.00 0.00 96 1017.2
20260906121010 24 189 0.0 4.8 0.00 0.00 0.00 96 1017.2
20260906120504 24 342 0.0 4.8 0.00 0.00 0.00 96 1017.2
20260906120001 24 187 0.0 0.0 0.00 0.00 0.00 96 1016.9
20260906115455 23 346 0.0 0.0 0.00 0.00 0.00 96 1016.9
20260906114950 23 327 0.0 0.0 0.00 0.00 0.00 96 1016.9
20260906114445 23 344 0.0 0.0 0.00 0.00 0.00 96 1016.9
20260906113941 23 346 0.0 4.8 0.00 0.00 0.00 96 1016.9
20260906113439 23 345 0.0 0.0 0.00 0.00 0.00 96 1016.6
20260906112935 23 345 0.0 0.0 0.00 0.00 0.00 96 1016.9
20260906112430 23 182 0.0 0.0 0.00 0.00 0.00 96 1016.6
20260906111926 23 179 0.0 0.0 0.00 0.00 0.00 96 1016.6
20260906111425 23 179 0.0 0.0 0.00 0.00 0.00 96 1016.6
20260906110920 23 178 0.0 0.0 0.00 0.00 0.00 96 1016.6
20260906110416 23 178 0.0 0.0 0.00 0.00 0.00 96 1016.6
20260906105915 23 179 0.0 0.0 0.00 0.00 0.00 96 1016.6
20260906105411 23 345 0.0 0.0 0.00 0.00 0.00 95 1016.6
20260906104907 23 345 0.0 0.0 0.00 0.00 0.00 95 1016.2
20260906104405 23 345 0.0 0.0 0.00 0.00 0.00 95 1016.2
20260906103904 23 183 0.0 0.0 0.00 0.00 0.00 95 1016.2
20260906103402 23 179 0.0 0.0 0.00 0.00 0.00 95 1015.9
20260906102858 23 179 0.0 0.0 0.00 0.00 0.00 95 1015.9
20260906102357 23 179 0.0 0.0 0.00 0.00 0.00 95 1015.9
20260906101852 23 179 0.0 0.0 0.00 0.00 0.00 95 1015.9
20260906101347 23 179 1.6 4.8 0.00 0.00 0.00 95 1015.9
20260906100843 23 179 0.0 4.8 0.00 0.00 0.00 95 1015.9
20260906100342 23 180 0.0 0.0 0.00 0.00 0.00 95 1015.9
20260906095837 24 179 0.0 0.0 0.00 0.00 0.00 95 1015.9
20260906095333 24 179 0.0 0.0 0.00 0.00 0.00 95 1016.2
20260906094832 24 180 0.0 0.0 0.00 0.00 0.00 95 1016.2
20260906094327 24 179 0.0 0.0 0.00 0.00 0.00 95 1015.9
20260906093824 24 180 0.0 0.0 0.00 0.00 0.00 95 1015.9
20260906093319 24 180 0.0 0.0 0.00 0.00 0.00 95 1015.9
20260906092813 24 181 0.0 0.0 0.00 0.00 0.00 95 1015.9
20260906092308 24 179 0.0 0.0 0.00 0.00 0.00 95 1015.9
20260906091804 24 179 0.0 0.0 0.00 0.00 0.00 95 1015.9
20260906091300 24 179 0.0 0.0 0.00 0.00 0.00 95 1015.9
20260906090756 24 179 0.0 0.0 0.00 0.00 0.00 95 1015.9
20260906090255 24 180 0.0 0.0 0.00 0.00 0.00 95 1015.6
20260906085755 24 179 0.0 0.0 0.00 0.00 0.00 95 1015.6
20260906085254 24 179 0.0 0.0 0.00 0.00 0.00 95 1015.9
20260906084749 24 179 0.0 0.0 0.00 0.00 0.00 94 1015.6
20260906084248 24 181 0.0 0.0 0.00 0.00 0.00 94 1015.6
20260906083743 24 181 0.0 0.0 0.00 0.00 0.00 94 1015.6
20260906083239 24 184 0.0 0.0 0.00 0.00 0.00 94 1015.6
20260906082734 24 331 0.0 0.0 0.00 0.00 0.00 94 1015.6
20260906082229 24 254 0.0 0.0 0.00 0.00 0.00 94 1015.6
20260906081725 24 345 0.0 0.0 0.00 0.00 0.00 94 1015.6
20260906081220 24 344 0.0 0.0 0.00 0.00 0.00 94 1015.6
20260906080716 24 334 0.0 0.0 0.00 0.00 0.00 94 1015.9
20260906080212 24 336 0.0 0.0 0.00 0.00 0.00 94 1015.6
20260906075706 24 335 0.0 0.0 0.00 0.00 0.00 94 1015.6
20260906075201 24 340 0.0 0.0 0.00 0.00 0.00 95 1015.6
20260906074656 24 344 0.0 0.0 0.00 0.00 0.00 95 1015.6
20260906074155 24 343 0.0 0.0 0.00 0.00 0.00 95 1015.6
20260906073650 24 329 0.0 0.0 0.00 0.00 0.00 95 1015.6
20260906073145 24 184 0.0 0.0 0.00 0.00 0.00 95 1015.6
20260906072641 24 180 0.0 0.0 0.00 0.00 0.00 95 1015.6
20260906072136 24 180 0.0 0.0 0.00 0.00 0.00 94 1015.9
20260906071633 24 180 0.0 0.0 0.00 0.00 0.00 94 1015.9
20260906071132 24 180 0.0 0.0 0.00 0.00 0.00 94 1015.9
20260906070629 24 184 0.0 0.0 0.00 0.00 0.00 94 1015.9
20260906070125 24 343 0.0 0.0 0.00 0.00 0.00 94 1015.6
20260906065624 25 315 0.0 0.0 0.00 0.00 0.00 94 1015.9
20260906065120 25 342 0.0 0.0 0.00 0.00 0.00 94 1015.9
20260906064615 25 344 0.0 0.0 0.00 0.00 0.00 94 1015.9
20260906064110 25 344 0.0 0.0 0.00 0.00 0.00 94 1015.9
20260906063605 25 344 1.6 4.8 0.00 0.00 0.00 94 1016.2
20260906063101 25 209 0.0 0.0 0.00 0.00 0.00 94 1015.9
20260906062557 25 180 0.0 0.0 0.00 0.00 0.00 94 1015.9
20260906062055 25 181 0.0 0.0 0.00 0.00 0.00 94 1016.2
20260906061552 25 344 0.0 0.0 0.00 0.00 0.00 94 1016.2
20260906061051 25 344 0.0 0.0 0.00 0.00 0.00 94 1016.2
20260906060548 25 340 0.0 4.8 0.00 0.00 0.00 94 1016.2
20260906060045 25 182 0.0 0.0 0.00 0.00 0.00 94 1016.2
20260906055540 25 180 0.0 0.0 0.00 0.00 0.00 94 1016.2
20260906055036 25 181 0.0 0.0 0.00 0.00 0.00 94 1016.2
20260906054536 25 180 0.0 0.0 0.00 0.00 0.00 94 1016.2
20260906054031 25 181 0.0 4.8 0.00 0.00 0.00 94 1016.2
20260906053527 25 180 0.0 0.0 0.00 0.00 0.00 94 1016.2
20260906053023 25 180 0.0 0.0 0.00 0.00 0.00 94 1016.2
20260906052518 25 185 0.0 0.0 0.00 0.00 0.00 94 1016.2
20260906052015 25 182 0.0 0.0 0.00 0.00 0.00 94 1016.2
20260906051511 25 181 0.0 0.0 0.00 0.00 0.00 94 1016.2
20260906051006 25 199 0.0 0.0 0.00 0.00 0.00 94 1016.2
20260906050506 25 194 0.0 0.0 0.00 0.00 0.00 94 1016.2
20260906050000 25 185 0.0 0.0 0.00 0.00 0.00 94 1016.2
20260906045459 25 180 0.0 0.0 0.00 0.00 0.00 94 1016.2
20260906044955 25 181 0.0 0.0 0.00 0.00 0.00 94 1016.2
20260906044449 25 182 0.0 0.0 0.00 0.00 0.00 94 1016.6
20260906043946 25 184 0.0 0.0 0.00 0.00 0.00 94 1016.2
20260906043441 25 181 0.0 0.0 0.00 0.00 0.00 94 1016.2
20260906042937 25 183 0.0 0.0 0.00 0.00 0.00 94 1016.2
20260906042436 25 184 0.0 0.0 0.00 0.00 0.00 94 1016.6
20260906041931 26 192 0.0 0.0 0.00 0.00 0.00 94 1016.6
20260906041427 26 181 0.0 0.0 0.00 0.00 0.00 93 1016.2
20260906040927 26 180 0.0 0.0 0.00 0.00 0.00 94 1016.2
20260906040422 26 180 0.0 0.0 0.00 0.00 0.00 93 1016.6
20260906035917 26 181 0.0 0.0 0.00 0.00 0.00 93 1016.6
20260906035412 26 180 0.0 0.0 0.00 0.00 0.00 93 1016.6
20260906034908 26 181 0.0 0.0 0.00 0.00 0.00 93 1016.6
20260906034402 26 180 1.6 4.8 0.00 0.00 0.00 93 1016.6
20260906033858 26 181 0.0 0.0 0.00 0.00 0.00 93 1016.9
20260906033357 26 181 0.0 0.0 0.00 0.00 0.00 93 1016.9
20260906032854 26 180 0.0 0.0 0.00 0.00 0.00 93 1017.2
20260906032349 26 181 0.0 0.0 0.00 0.00 0.00 93 1017.2
20260906031844 26 181 0.0 0.0 0.00 0.00 0.00 93 1016.9
20260906031339 26 182 0.0 0.0 0.00 0.00 0.00 93 1017.2
20260906030839 26 181 0.0 0.0 0.00 0.00 0.00 93 1017.2
20260906030335 26 182 1.6 4.8 0.00 0.00 0.00 93 1017.6
20260906025829 26 181 0.0 4.8 0.00 0.00 0.00 92 1017.6
20260906025323 26 181 0.0 0.0 0.00 0.00 0.00 92 1017.6
20260906024822 26 182 0.0 0.0 0.00 0.00 0.00 92 1017.2
20260906024321 26 182 0.0 0.0 0.00 0.00 0.00 92 1017.2
20260906023817 26 184 0.0 0.0 0.00 0.00 0.00 92 1017.2
20260906023312 26 183 0.0 0.0 0.00 0.00 0.00 92 1017.6
20260906022808 26 183 0.0 0.0 0.00 0.00 0.00 92 1017.2
20260906022306 26 183 0.0 0.0 0.00 0.00 0.00 92 1017.2
20260906021759 26 182 0.0 0.0 0.00 0.00 0.00 92 1017.2
20260906021258 27 182 0.0 0.0 0.00 0.00 0.00 92 1017.2
20260906020753 27 183 0.0 0.0 0.00 0.00 0.00 92 1016.9
20260906020253 27 182 0.0 0.0 0.00 0.00 0.00 92 1016.6
20260906015753 27 182 1.6 4.8 0.00 0.00 0.00 92 1016.6
20260906015251 27 182 0.0 0.0 0.00 0.00 0.00 92 1016.6
20260906014746 27 182 0.0 0.0 0.00 0.00 0.00 92 1016.6
20260906014242 27 184 0.0 0.0 0.00 0.00 0.00 92 1016.6
20260906013738 27 183 0.0 0.0 0.00 0.00 0.00 92 1016.6
20260906013237 27 183 1.6 4.8 0.00 0.00 0.00 92 1016.2
20260906012733 27 183 0.0 0.0 0.00 0.00 0.00 92 1016.2
20260906012228 27 184 0.0 4.8 0.00 0.00 0.00 92 1016.2
20260906011723 27 184 1.6 4.8 0.00 0.00 0.00 92 1015.9
20260906011223 27 186 0.0 0.0 0.00 0.00 0.00 92 1015.9
20260906010718 27 185 0.0 0.0 0.00 0.00 0.00 92 1015.9
20260906010214 27 186 0.0 0.0 0.00 0.00 0.00 92 1015.6
20260906005709 27 185 3.2 4.8 0.00 0.00 0.00 92 1015.6
20260906005209 27 185 1.6 4.8 0.00 0.00 0.00 92 1015.6
20260906004707 28 185 3.2 4.8 0.00 0.00 0.00 92 1015.6
20260906004203 28 186 0.0 0.0 0.00 0.00 0.00 92 1015.6
20260906003658 28 186 1.6 4.8 0.00 0.00 0.00 91 1015.6
20260906003153 28 185 3.2 4.8 0.00 0.00 0.00 91 1015.2
20260906002648 28 192 1.6 4.8 0.00 0.00 0.00 91 1015.6
20260906002143 28 189 0.0 4.8 0.00 0.00 0.00 91 1015.6
20260906001638 28 186 0.0 0.0 0.00 0.00 0.00 91 1015.6
20260906001138 28 186 1.6 4.8 0.00 0.00 0.00 91 1015.2
20260906000633 28 185 4.8 8.0 0.00 0.00 0.00 90 1015.2
20260906000129 28 186 1.6 4.8 0.00 0.00 0.00 90 1014.9
20260905235627 29 185 1.6 4.8 0.00 0.00 0.00 90 1014.9
20260905235123 29 185 1.6 4.8 0.00 0.00 0.00 89 1015.2
20260905234618 29 185 3.2 4.8 0.00 0.00 0.00 88 1015.2
20260905234114 30 184 0.0 0.0 0.00 0.00 0.00 88 1015.2
20260905233608 30 184 4.8 8.0 0.00 0.00 0.00 87 1015.2
20260905233102 30 183 6.4 8.0 0.00 0.00 0.00 86 1014.9
20260905232558 30 184 4.8 8.0 0.00 0.00 0.00 85 1015.2
20260905232053 30 183 6.4 8.0 0.00 0.00 0.00 85 1014.9
20260905231548 30 183 8.0 11.3 0.00 0.00 0.00 84 1015.2
20260905231045 31 183 6.4 8.0 0.00 0.00 0.00 83 1015.2
20260905230544 31 182 9.7 11.3 0.00 0.00 0.00 82 1015.2
20260905230043 31 185 4.8 8.0 0.00 0.00 0.00 81 1014.9
20260905225537 31 183 4.8 4.8 0.00 0.00 0.00 80 1015.6
20260905225032 32 183 4.8 8.0 0.00 0.00 0.00 79 1015.6
20260905224532 32 184 1.6 4.8 0.00 0.00 0.00 78 1015.6
20260905224032 32 183 6.4 8.0 0.00 0.00 0.00 76 1015.6
20260905223530 33 185 3.2 8.0 0.00 0.00 0.00 75 1015.6
20260905223025 33 183 3.2 4.8 0.00 0.00 0.00 74 1015.6
20260905222525 33 185 1.6 4.8 0.00 0.00 0.00 73 1015.6
20260905222020 33 184 1.6 4.8 0.00 0.00 0.00 73 1015.6
20260905221517 33 184 4.8 8.0 0.00 0.00 0.00 71 1015.9
20260905221013 33 184 9.7 11.3 0.00 0.00 0.00 71 1015.6
20260905220508 33 184 11.3 11.3 0.00 0.00 0.00 73 1015.6
20260905220003 33 184 4.8 8.0 0.00 0.00 0.00 73 1015.6
20260905215458 33 184 3.2 4.8 0.00 0.00 0.00 72 1015.9
20260905214954 33 184 4.8 8.0 0.00 0.00 0.00 71 1015.9
20260905214450 33 185 8.0 11.3 0.00 0.00 0.00 72 1015.9
20260905213950 33 184 6.4 8.0 0.00 0.00 0.00 73 1016.2
20260905213446 33 187 0.0 0.0 0.00 0.00 0.00 73 1015.9
20260905212941 34 186 4.8 8.0 0.00 0.00 0.00 73 1015.9
20260905212436 34 185 0.0 4.8 0.00 0.00 0.00 72 1015.9
20260905211935 34 185 8.0 8.0 0.00 0.00 0.00 74 1015.6
20260905211431 35 188 11.3 11.3 0.00 0.00 0.00 69 1015.6
20260905210927 35 185 4.8 8.0 0.00 0.00 0.00 71 1015.9
20260905210426 34 186 0.0 0.0 0.00 0.00 0.00 69 1015.9
20260905205926 34 186 14.5 16.1 0.00 0.00 0.00 68 1015.9
20260905205421 33 338 1.6 4.8 0.00 0.00 0.00 67 1015.9
20260905204920 33 191 0.0 0.0 0.00 0.00 0.00 66 1015.6
20260905204416 33 185 8.0 8.0 0.00 0.00 0.00 69 1015.9
20260905203915 33 316 0.0 0.0 0.00 0.00 0.00 68 1015.6
20260905203411 33 184 0.0 0.0 0.00 0.00 0.00 71 1015.9
20260905202906 33 255 3.2 4.8 0.00 0.00 0.00 74 1015.9
20260905202401 33 217 1.6 4.8 0.00 0.00 0.00 73 1015.9
20260905201856 33 318 0.0 0.0 0.00 0.00 0.00 73 1015.9
20260905201352 32 332 6.4 8.0 0.00 0.00 0.00 75 1015.9
20260905200846 32 335 4.8 8.0 0.00 0.00 0.00 73 1015.9
20260905200342 32 187 6.4 8.0 0.00 0.00 0.00 71 1015.9
20260905195840 32 334 0.0 4.8 0.00 0.00 0.00 73 1016.2
20260905195335 32 338 9.7 11.3 0.00 0.00 0.00 73 1016.2
20260905194831 32 332 0.0 0.0 0.00 0.00 0.00 74 1016.2
20260905194331 32 337 3.2 4.8 0.00 0.00 0.00 74 1016.2
20260905193830 32 327 12.9 16.1 0.00 0.00 0.00 72 1015.9
20260905193325 32 187 4.8 8.0 0.00 0.00 0.00 72 1016.2
20260905192821 32 186 0.0 0.0 0.00 0.00 0.00 73 1016.6
20260905192317 31 323 1.6 4.8 0.00 0.00 0.00 73 1016.2
20260905191815 31 337 6.4 8.0 0.00 0.00 0.00 77 1016.6
20260905191314 31 338 9.7 11.3 0.00 0.00 0.00 74 1016.9
20260905190813 31 337 0.0 4.8 0.00 0.00 0.00 73 1016.6
20260905190312 31 186 0.0 0.0 0.00 0.00 0.00 75 1016.9
20260905185806 31 338 9.7 11.3 0.00 0.00 0.00 77 1016.9
20260905185305 31 314 8.0 11.3 0.00 0.00 0.00 79 1016.9
20260905184800 31 338 16.1 19.3 0.00 0.00 0.00 77 1017.2
20260905184254 31 336 12.9 16.1 0.00 0.00 0.00 77 1017.2
20260905183753 31 338 6.4 8.0 0.00 0.00 0.00 75 1017.6
20260905183249 31 338 4.8 8.0 0.00 0.00 0.00 75 1017.2
20260905182748 31 313 9.7 11.3 0.00 0.00 0.00 78 1017.6
20260905182242 31 320 4.8 8.0 0.00 0.00 0.00 77 1017.2
20260905181737 31 189 0.0 0.0 0.00 0.00 0.00 78 1017.2
20260905181236 31 339 4.8 4.8 0.00 0.00 0.00 78 1017.6
20260905180732 31 339 9.7 11.3 0.00 0.00 0.00 81 1017.6
20260905180226 31 337 0.0 4.8 0.00 0.00 0.00 83 1017.6
20260905175721 30 324 14.5 16.1 0.00 0.00 0.00 80 1017.6
20260905175216 30 338 3.2 4.8 0.00 0.00 0.00 79 1017.9
20260905174711 30 340 3.2 4.8 0.00 0.00 0.00 81 1018.3
20260905174206 30 335 1.6 4.8 0.00 0.00 0.00 80 1018.3
20260905173703 30 335 0.0 0.0 0.00 0.00 0.00 81 1018.3
20260905173158 30 258 1.6 4.8 0.00 0.00 0.00 82 1017.9
20260905172657 30 340 8.0 11.3 0.00 0.00 0.00 83 1018.3
20260905172152 30 329 4.8 8.0 0.00 0.00 0.00 84 1017.9
20260905171647 30 340 0.0 4.8 0.00 0.00 0.00 83 1018.3
20260905171143 29 194 0.0 0.0 0.00 0.00 0.00 84 1018.3
20260905170640 29 331 1.6 4.8 0.00 0.00 0.00 85 1018.3
20260905170135 29 340 1.6 4.8 0.00 0.00 0.00 84 1018.3
20260905165635 28 203 0.0 0.0 0.00 0.00 0.00 83 1018.6
20260905165130 28 335 1.6 4.8 0.00 0.00 0.00 86 1018.6
20260905164625 28 327 3.2 4.8 0.00 0.00 0.00 87 1018.6
20260905164124 28 338 0.0 4.8 0.00 0.00 0.00 86 1018.9
20260905163621 28 341 4.8 8.0 0.00 0.00 0.00 86 1018.9
20260905163117 29 340 9.7 11.3 0.00 0.00 0.00 88 1018.9
20260905162613 29 336 1.6 4.8 0.00 0.00 0.00 88 1018.9
20260905162112 29 339 6.4 8.0 0.00 0.00 0.00 88 1019.3
20260905161612 29 298 0.0 4.8 0.00 0.00 0.00 87 1018.9
20260905161110 29 340 9.7 11.3 0.00 0.00 0.00 87 1019.3
20260905160609 27 340 0.0 0.0 0.00 0.00 0.00 88 1018.9
20260905155558 27 340 0.0 0.0 0.00 0.00 0.00 87 1019.3
20260905155056 26 181 0.0 0.0 0.00 0.00 0.00 88 1019.3
20260905154551 26 182 0.0 0.0 0.00 0.00 0.00 90 1019.6
20260905154047 26 186 0.0 0.0 0.00 0.00 0.00 93 1019.6
20260905153543 25 323 0.0 0.0 0.00 0.00 0.00 95 1019.6
20260905153043 25 242 0.0 0.0 0.00 0.00 0.00 96 1019.6
20260905152537 25 334 3.2 4.8 0.00 0.00 0.00 97 1019.6
20260905152032 25 334 6.4 8.0 0.00 0.00 0.00 98 1019.6
20260905151528 25 330 3.2 4.8 0.00 0.00 0.00 98 1019.6
20260905151023 25 329 1.6 4.8 0.00 0.00 0.00 98 1019.6
20260905150518 25 336 8.0 11.3 0.00 0.00 0.00 98 1019.6
20260905150016 25 339 4.8 8.0 0.00 0.00 0.00 98 1019.6
20260905145509 25 344 1.6 4.8 0.00 0.00 0.00 98 1019.6
20260905145009 25 347 1.6 4.8 0.00 0.00 0.00 98 1019.6
20260905144504 25 346 4.8 8.0 0.00 0.00 0.00 98 1019.3
20260905144003 25 348 6.4 8.0 0.00 0.00 0.00 98 1019.6
20260905143502 25 348 3.2 4.8 0.00 0.00 0.00 98 1019.6
20260905142957 25 342 3.2 4.8 0.00 0.00 0.00 98 1019.6
20260905142456 25 179 0.0 0.0 0.00 0.00 0.00 98 1019.6
20260905141951 24 345 6.4 8.0 0.00 0.00 0.00 98 1019.6
20260905141446 24 187 1.6 4.8 0.00 0.00 0.00 98 1020.0
20260905140942 24 347 8.0 11.3 0.00 0.00 0.00 98 1020.0
20260905140437 24 348 0.0 4.8 0.00 0.00 0.00 98 1019.3
20260905135936 24 348 4.8 8.0 0.00 0.00 0.00 98 1019.6
20260905135432 24 348 3.2 4.8 0.00 0.00 0.00 98 1019.3
20260905134927 24 348 3.2 4.8 0.00 0.00 0.00 98 1019.6
20260905134426 24 348 0.0 4.8 0.00 0.00 0.00 98 1019.6
20260905133921 24 346 3.2 8.0 0.00 0.00 0.00 98 1019.3
20260905133421 24 345 6.4 8.0 0.00 0.00 0.00 98 1019.6
20260905132920 24 348 6.4 8.0 0.00 0.00 0.00 98 1019.6
20260905132416 23 347 4.8 4.8 0.00 0.00 0.00 98 1019.3